createdAt,value
2019-04-01T00:01:56.748Z,31.30
2019-04-01T00:04:25.186Z,30.27
2019-04-01T00:06:53.625Z,28.50
2019-04-01T00:09:22.078Z,29.93
2019-04-01T00:11:50.615Z,29.27
2019-04-01T00:14:19.058Z,26.77
2019-04-01T00:16:47.496Z,28.00
2019-04-01T00:19:15.926Z,25.23
2019-04-01T00:21:44.804Z,27.83
2019-04-01T00:24:14.590Z,24.27
2019-04-01T00:26:56.891Z,28.80
2019-04-01T00:29:13.345Z,26.13
2019-04-01T00:31:41.785Z,27.30
2019-04-01T00:34:10.229Z,23.20
2019-04-01T00:36:38.686Z,24.47
2019-04-01T00:39:07.130Z,27.47
2019-04-01T00:44:13.798Z,31.20
2019-04-01T00:46:42.344Z,28.00
2019-04-01T00:49:10.815Z,29.13
2019-04-01T00:51:39.345Z,28.73
2019-04-01T00:54:07.867Z,27.67
2019-04-01T00:56:36.335Z,25.30
2019-04-01T00:59:04.866Z,27.90
2019-04-01T01:01:33.310Z,24.90
2019-04-01T01:04:01.838Z,24.63
2019-04-01T01:06:30.271Z,25.97
2019-04-01T01:08:58.717Z,24.03
2019-04-01T01:11:27.177Z,28.17
2019-04-01T01:13:55.670Z,37.57
2019-04-01T01:16:42.953Z,35.73
2019-04-01T01:19:11.492Z,32.97
2019-04-01T01:21:39.942Z,31.33
2019-04-01T01:24:08.480Z,24.30
2019-04-01T01:26:36.916Z,27.33
2019-04-01T01:29:24.244Z,29.37
2019-04-01T01:31:52.746Z,32.27
2019-04-01T01:34:21.182Z,29.50
2019-04-01T01:36:49.622Z,30.77
2019-04-01T01:39:18.063Z,30.37
2019-04-01T01:41:46.622Z,24.73
2019-04-01T01:44:15.169Z,29.30
2019-04-01T01:49:54.865Z,34.13
2019-04-01T01:52:42.265Z,28.50
2019-04-01T01:55:22.261Z,27.90
2019-04-01T01:57:50.833Z,33.90
2019-04-01T02:03:08.370Z,25.67
2019-04-01T02:05:36.817Z,26.33
2019-04-01T02:08:05.270Z,25.17
2019-04-01T02:10:33.808Z,32.43
2019-04-01T02:13:21.146Z,24.23
2019-04-01T02:15:49.593Z,26.67
2019-04-01T02:18:18.087Z,26.33
2019-04-01T02:21:05.412Z,25.00
2019-04-01T02:26:37.149Z,26.57
2019-04-01T02:29:05.588Z,32.13
2019-04-01T02:31:34.045Z,26.53
2019-04-01T02:34:02.568Z,28.53
2019-04-01T02:36:31.000Z,31.00
2019-04-01T02:38:59.466Z,28.77
2019-04-01T02:41:28.034Z,25.27
2019-04-01T02:43:56.465Z,28.73
2019-04-01T02:49:27.710Z,24.53
2019-04-01T02:51:56.157Z,27.63
2019-04-01T02:54:24.606Z,26.33
2019-04-01T03:06:03.000Z,36.53
2019-04-01T03:11:42.688Z,25.13
2019-04-01T03:14:30.121Z,25.23
2019-04-01T03:16:58.591Z,27.90
2019-04-01T03:19:27.037Z,31.73
2019-04-01T03:21:55.495Z,29.83
2019-04-01T03:24:23.943Z,25.27
2019-04-01T03:26:52.486Z,31.83
2019-04-01T03:29:21.155Z,30.20
2019-04-01T03:31:49.594Z,26.13
2019-04-01T03:34:18.031Z,30.37
2019-04-01T03:36:46.460Z,33.63
2019-04-01T03:39:14.899Z,29.93
2019-04-01T03:41:43.353Z,30.77
2019-04-01T03:47:38.462Z,27.83
2019-04-01T03:50:07.209Z,31.50
2019-04-01T03:52:35.646Z,31.13
2019-04-01T03:55:04.200Z,35.43
2019-04-01T04:00:44.517Z,29.57
2019-04-01T04:03:13.111Z,33.10
2019-04-01T04:05:41.678Z,35.23
2019-04-01T04:08:10.125Z,40.33
2019-04-01T04:13:13.659Z,28.83
2019-04-01T04:15:42.097Z,37.00
2019-04-01T04:18:29.414Z,33.83
2019-04-01T04:24:00.455Z,34.47
2019-04-01T04:26:29.632Z,37.23
2019-04-01T04:28:58.193Z,39.67
2019-04-01T04:31:26.638Z,50.93
2019-04-01T04:34:13.962Z,65.40
2019-04-01T04:36:42.406Z,65.10
2019-04-01T04:39:10.841Z,51.33
2019-04-01T04:41:58.186Z,53.63
2019-04-01T04:47:29.593Z,24.53
2019-04-01T04:50:16.965Z,30.40
2019-04-01T04:52:45.397Z,28.53
2019-04-01T04:55:13.913Z,33.53
2019-04-01T04:57:42.351Z,28.43
2019-04-01T05:00:10.926Z,30.63
2019-04-01T05:02:39.597Z,29.00
2019-04-01T05:05:08.129Z,30.77
2019-04-01T05:07:36.723Z,24.70
2019-04-01T05:12:59.790Z,30.57
2019-04-01T05:15:28.282Z,49.70
2019-04-01T05:17:56.787Z,29.67
2019-04-01T05:20:25.206Z,27.87
2019-04-01T05:22:53.755Z,29.00
2019-04-01T05:25:22.296Z,30.37
2019-04-01T05:38:40.121Z,27.67
2019-04-01T05:41:08.653Z,30.63
2019-04-01T05:43:37.205Z,26.90
2019-04-01T05:46:05.733Z,27.83
2019-04-01T05:48:34.174Z,42.37
2019-04-01T05:53:56.791Z,34.87
2019-04-01T05:56:25.325Z,29.17
2019-04-01T05:58:53.879Z,45.93
2019-04-01T06:04:34.381Z,23.73
2019-04-01T06:07:02.918Z,25.17
2019-04-01T06:09:31.445Z,22.53
2019-04-01T06:11:59.997Z,25.67
2019-04-01T06:14:47.360Z,33.30
2019-04-01T06:17:16.274Z,30.27
2019-04-01T06:22:39.047Z,33.17
2019-04-01T06:25:07.719Z,32.57
2019-04-01T06:27:38.559Z,37.57
2019-04-01T06:30:07.147Z,30.33
2019-04-01T06:32:35.697Z,28.13
2019-04-01T06:35:04.336Z,26.20
2019-04-01T06:42:53.706Z,36.80
2019-04-01T06:45:22.298Z,34.80
2019-04-01T06:47:50.840Z,28.30
2019-04-01T06:50:19.311Z,29.13
2019-04-01T06:52:47.762Z,33.10
2019-04-01T06:55:16.305Z,30.77
2019-04-01T06:57:44.854Z,35.13
2019-04-01T07:03:21.134Z,38.33
2019-04-01T07:05:49.570Z,35.67
2019-04-01T07:08:18.117Z,28.80
2019-04-01T07:10:46.638Z,26.63
2019-04-01T07:13:15.143Z,31.00
2019-04-01T07:15:43.583Z,28.33
2019-04-01T07:18:12.048Z,27.87
2019-04-01T07:20:40.588Z,26.83
2019-04-01T07:23:09.254Z,28.90
2019-04-01T07:25:37.746Z,23.13
2019-04-01T07:28:06.227Z,20.93
2019-04-01T07:30:34.763Z,25.03
2019-04-01T07:33:03.318Z,26.87
2019-04-01T07:35:31.805Z,25.37
2019-04-01T07:38:00.394Z,43.20
2019-04-01T07:40:29.002Z,24.53
2019-04-01T07:42:57.433Z,28.63
2019-04-01T07:45:25.874Z,31.23
2019-04-01T07:47:54.351Z,30.63
2019-04-01T07:50:22.774Z,25.70
2019-04-01T07:55:26.476Z,19.03
2019-04-01T07:57:55.027Z,25.00
2019-04-01T08:00:23.578Z,17.50
2019-04-01T08:02:52.123Z,17.33
2019-04-01T08:05:20.579Z,15.30
2019-04-01T08:07:49.134Z,19.93
2019-04-01T08:10:17.647Z,18.60
2019-04-01T08:12:46.250Z,17.00
2019-04-01T08:15:14.806Z,18.83
2019-04-01T08:17:43.374Z,17.73
2019-04-01T08:23:19.851Z,16.67
2019-04-01T08:25:48.291Z,18.53
2019-04-01T08:28:16.909Z,14.83
2019-04-01T08:30:45.369Z,18.57
2019-04-01T08:33:13.918Z,19.67
2019-04-01T08:35:42.454Z,16.00
2019-04-01T08:38:11.022Z,15.40
2019-04-01T08:40:39.579Z,19.07
2019-04-01T08:43:08.182Z,18.70
2019-04-01T08:45:43.878Z,12.77
2019-04-01T08:48:12.482Z,15.13
2019-04-01T08:50:41.044Z,16.40
2019-04-01T08:56:01.083Z,21.67
2019-04-01T08:58:28.986Z,14.43
2019-04-01T09:00:57.523Z,21.77
2019-04-01T09:03:25.976Z,17.93
2019-04-01T09:05:54.568Z,16.10
2019-04-01T09:11:12.185Z,16.97
2019-04-01T09:14:00.914Z,17.23
2019-04-01T09:19:10.567Z,9.97
2019-04-01T09:21:39.026Z,11.43
2019-04-01T09:24:07.576Z,10.17
2019-04-01T09:26:36.057Z,10.97
2019-04-01T09:29:04.663Z,12.27
2019-04-01T09:31:33.234Z,13.37
2019-04-01T09:34:01.694Z,11.67
2019-04-01T09:36:30.257Z,8.53
2019-04-01T09:38:58.707Z,10.83
2019-04-01T09:41:27.257Z,13.80
2019-04-01T09:43:55.791Z,12.93
2019-04-01T09:46:24.293Z,10.17
2019-04-01T09:48:52.716Z,13.30
2019-04-01T09:51:21.147Z,17.60
2019-04-01T09:53:49.670Z,10.70
2019-04-01T09:56:18.134Z,19.97
2019-04-01T09:58:46.569Z,13.60
2019-04-01T10:01:15.043Z,15.23
2019-04-01T10:03:43.479Z,10.73
2019-04-01T10:06:12.032Z,15.63
2019-04-01T10:08:42.380Z,13.40
2019-04-01T10:11:12.653Z,12.90
2019-04-01T10:13:41.166Z,14.07
2019-04-01T10:16:09.656Z,10.13
2019-04-01T10:18:38.083Z,10.33
2019-04-01T10:21:06.630Z,12.87
2019-04-01T10:23:35.171Z,11.63
2019-04-01T10:26:03.646Z,10.90
2019-04-01T10:28:32.457Z,10.33
2019-04-01T10:31:02.298Z,13.30
2019-04-01T10:33:30.848Z,23.47
2019-04-01T10:35:59.314Z,17.70
2019-04-01T10:38:27.851Z,10.80
2019-04-01T10:40:56.289Z,10.90
2019-04-01T10:43:24.739Z,10.67
2019-04-01T10:45:53.378Z,15.07
2019-04-01T10:48:21.930Z,13.03
2019-04-01T10:50:50.455Z,15.17
2019-04-01T10:53:18.978Z,13.80
2019-04-01T10:55:47.518Z,18.77
2019-04-01T10:58:15.992Z,13.13
2019-04-01T11:00:44.437Z,10.33
2019-04-01T11:03:13.035Z,11.30
2019-04-01T11:05:41.711Z,19.97
2019-04-01T11:08:10.281Z,13.07
2019-04-01T11:10:38.820Z,13.53
2019-04-01T11:13:07.370Z,10.30
2019-04-01T11:15:35.936Z,12.43
2019-04-01T11:18:04.458Z,11.63
2019-04-01T11:20:33.034Z,12.30
2019-04-01T11:23:02.840Z,13.43
2019-04-01T11:28:26.877Z,12.50
2019-04-01T11:30:55.454Z,14.17
2019-04-01T11:33:42.886Z,15.03
2019-04-01T11:36:11.364Z,12.33
2019-04-01T11:38:39.790Z,11.67
2019-04-01T11:41:08.264Z,11.93
2019-04-01T11:43:36.698Z,12.70
2019-04-01T11:46:05.179Z,14.23
2019-04-01T11:48:34.170Z,11.53
2019-04-01T11:51:03.218Z,13.40
2019-04-01T11:53:31.806Z,10.10
2019-04-01T11:56:00.253Z,11.30
2019-04-01T11:58:28.702Z,12.97
2019-04-01T12:00:57.126Z,15.53
2019-04-01T12:03:25.695Z,15.10
2019-04-01T12:05:54.120Z,18.70
2019-04-01T12:08:22.627Z,13.37
2019-04-01T12:10:51.383Z,14.70
2019-04-01T12:13:20.067Z,8.53
2019-04-01T12:15:48.641Z,13.93
2019-04-01T12:18:17.150Z,12.07
2019-04-01T12:20:45.553Z,8.83
2019-04-01T12:23:14.479Z,13.43
2019-04-01T12:25:44.210Z,8.93
2019-04-01T12:28:14.112Z,10.13
2019-04-01T12:30:42.867Z,9.43
2019-04-01T12:33:11.400Z,12.40
2019-04-01T12:35:39.868Z,11.30
2019-04-01T12:38:08.302Z,13.07
2019-04-01T12:40:36.842Z,12.93
2019-04-01T12:45:52.958Z,10.13
2019-04-01T12:48:21.499Z,10.00
2019-04-01T12:50:49.988Z,9.30
2019-04-01T12:53:18.470Z,7.47
2019-04-01T12:55:46.939Z,8.80
2019-04-01T12:58:17.719Z,7.63
2019-04-01T13:00:45.670Z,8.57
2019-04-01T13:03:33.962Z,9.00
2019-04-01T13:06:02.461Z,15.13
2019-04-01T13:08:30.895Z,11.07
2019-04-01T13:10:59.346Z,26.80
2019-04-01T13:13:27.789Z,34.37
2019-04-01T13:15:56.230Z,7.40
2019-04-01T13:18:24.738Z,10.30
2019-04-01T13:20:53.170Z,7.97
2019-04-01T13:23:21.606Z,8.40
2019-04-01T13:25:50.061Z,11.23
2019-04-01T13:28:18.524Z,9.03
2019-04-01T13:30:47.278Z,11.23
2019-04-01T13:33:17.010Z,10.17
2019-04-01T13:35:45.877Z,11.10
2019-04-01T13:38:15.237Z,9.57
2019-04-01T13:40:44.732Z,12.07
2019-04-01T13:43:16.912Z,7.70
2019-04-01T13:45:44.761Z,8.57
2019-04-01T13:48:13.135Z,6.83
2019-04-01T13:50:41.632Z,7.20
2019-04-01T13:53:10.104Z,6.73
2019-04-01T13:55:38.553Z,7.73
2019-04-01T13:58:06.966Z,7.93
2019-04-01T14:00:35.526Z,8.33
2019-04-01T14:03:04.059Z,10.27
2019-04-01T14:05:32.491Z,9.80
2019-04-01T14:08:00.942Z,7.57
2019-04-01T14:10:48.268Z,7.50
2019-04-01T14:13:16.707Z,6.47
2019-04-01T14:15:45.138Z,6.77
2019-04-01T14:18:13.601Z,8.13
2019-04-01T14:20:42.043Z,6.47
2019-04-01T14:23:10.474Z,11.33
2019-04-01T14:25:38.903Z,7.30
2019-04-01T14:28:07.342Z,7.53
2019-04-01T14:30:36.376Z,9.03
2019-04-01T14:33:05.971Z,6.37
2019-04-01T14:35:35.631Z,7.63
2019-04-01T14:38:04.573Z,6.40
2019-04-01T14:40:33.005Z,8.67
2019-04-01T14:43:01.474Z,9.83
2019-04-01T14:45:30.006Z,10.20
2019-04-01T14:47:58.442Z,10.73
2019-04-01T14:50:26.970Z,7.60
2019-04-01T14:52:55.418Z,7.17
2019-04-01T14:55:24.038Z,10.33
2019-04-01T14:57:52.418Z,10.10
2019-04-01T15:00:20.989Z,10.70
2019-04-01T15:02:49.497Z,6.40
2019-04-01T15:05:18.118Z,7.60
2019-04-01T15:07:47.087Z,7.70
2019-04-01T15:10:17.047Z,10.33
2019-04-01T15:12:45.653Z,8.40
2019-04-01T15:18:21.851Z,9.53
2019-04-01T15:20:50.478Z,7.63
2019-04-01T15:23:18.910Z,7.90
2019-04-01T15:25:47.350Z,10.63
2019-04-01T15:28:15.891Z,7.40
2019-04-01T15:30:44.325Z,6.60
2019-04-01T15:33:12.865Z,10.10
2019-04-01T15:35:41.278Z,13.87
2019-04-01T15:38:09.898Z,9.03
2019-04-01T15:40:38.268Z,9.20
2019-04-01T15:43:06.713Z,7.20
2019-04-01T15:45:35.475Z,12.67
2019-04-01T15:48:05.173Z,8.70
2019-04-01T15:50:33.490Z,7.47
2019-04-01T15:53:01.771Z,7.83
2019-04-01T15:55:31.607Z,40.37
2019-04-01T15:58:00.073Z,28.97
2019-04-01T16:00:28.410Z,12.83
2019-04-01T16:02:56.708Z,11.60
2019-04-01T16:05:25.025Z,25.83
2019-04-01T16:08:12.911Z,19.10
2019-04-01T16:10:41.207Z,14.33
2019-04-01T16:13:09.508Z,11.10
2019-04-01T16:15:38.493Z,9.97
2019-04-01T16:18:07.798Z,12.07
2019-04-01T16:20:50.316Z,10.67
2019-04-01T16:23:06.436Z,9.43
2019-04-01T16:25:37.619Z,21.73
2019-04-01T16:28:05.352Z,14.87
2019-04-01T16:30:33.662Z,16.27
2019-04-01T16:33:02.022Z,12.00
2019-04-01T16:35:30.345Z,32.47
2019-04-01T16:37:59.493Z,14.10
2019-04-01T16:40:28.661Z,20.27
2019-04-01T16:42:57.033Z,27.97
2019-04-01T16:45:25.404Z,47.30
2019-04-01T16:47:53.708Z,37.47
2019-04-01T16:50:22.027Z,156.60
2019-04-01T16:52:50.563Z,320.70
2019-04-01T16:55:18.998Z,219.17
2019-04-01T16:57:47.339Z,313.53
2019-04-01T17:03:23.350Z,59.70
2019-04-01T17:05:51.677Z,42.57
2019-04-01T17:08:19.984Z,21.70
2019-04-01T17:10:48.390Z,72.97
2019-04-01T17:13:16.893Z,277.70
2019-04-01T17:15:45.372Z,228.77
2019-04-01T17:21:08.381Z,74.47
2019-04-01T17:23:36.721Z,84.97
2019-04-01T17:26:05.178Z,58.20
2019-04-01T17:28:33.494Z,30.73
2019-04-01T17:31:01.853Z,29.60
2019-04-01T17:33:30.124Z,40.63
2019-04-01T17:35:58.444Z,47.13
2019-04-01T17:38:26.804Z,56.10
2019-04-01T17:40:55.165Z,37.87
2019-04-01T17:43:23.469Z,57.93
2019-04-01T17:45:51.806Z,54.40
2019-04-01T17:48:20.094Z,66.53
2019-04-01T17:50:48.465Z,47.53
2019-04-01T17:53:16.774Z,152.70
2019-04-01T17:55:45.695Z,109.83
2019-04-01T17:58:15.533Z,65.07
2019-04-01T18:03:41.846Z,47.17
2019-04-01T18:06:10.149Z,98.63
2019-04-01T18:08:38.478Z,206.00
2019-04-01T18:11:06.778Z,127.03
2019-04-01T18:13:36.475Z,325.83
2019-04-01T18:16:04.897Z,106.20
2019-04-01T18:18:34.194Z,238.67
2019-04-01T18:21:03.485Z,156.83
2019-04-01T18:26:33.718Z,127.03
2019-04-01T18:29:02.038Z,142.00
2019-04-01T18:31:30.354Z,77.77
2019-04-01T18:33:59.359Z,60.17
2019-04-01T18:36:28.654Z,128.33
2019-04-01T18:38:56.973Z,123.67
2019-04-01T18:41:25.274Z,79.87
2019-04-01T18:43:53.606Z,63.70
2019-04-01T18:46:23.295Z,40.23
2019-04-01T18:48:51.870Z,25.37
2019-04-01T18:51:20.567Z,40.47
2019-04-01T18:53:50.147Z,41.30
2019-04-01T18:56:18.483Z,31.73
2019-04-01T18:58:46.772Z,28.47
2019-04-01T19:01:16.018Z,29.93
2019-04-01T19:03:45.089Z,24.07
2019-04-01T19:06:13.385Z,13.77
2019-04-01T19:08:41.682Z,19.00
2019-04-01T19:13:43.669Z,21.80
2019-04-01T19:16:13.586Z,22.77
2019-04-01T19:18:42.112Z,22.97
2019-04-01T19:21:11.963Z,22.73
2019-04-01T19:23:40.285Z,24.67
2019-04-01T19:26:10.050Z,23.53
2019-04-01T19:28:38.571Z,25.67
2019-04-01T19:31:06.858Z,19.90
2019-04-01T19:33:35.237Z,20.93
2019-04-01T19:36:03.544Z,24.10
2019-04-01T19:38:31.899Z,28.37
2019-04-01T19:41:00.673Z,22.80
2019-04-01T19:43:29.102Z,68.33
2019-04-01T19:49:06.242Z,21.63
2019-04-01T19:51:36.041Z,18.40
2019-04-01T19:54:31.151Z,17.17
2019-04-01T19:56:55.194Z,20.30
2019-04-01T19:59:25.994Z,19.70
2019-04-01T20:01:53.485Z,34.57
2019-04-01T20:04:23.169Z,23.70
2019-04-01T20:06:51.742Z,22.97
2019-04-01T20:09:20.045Z,26.30
2019-04-01T20:11:48.350Z,24.90
2019-04-01T20:14:16.689Z,20.47
2019-04-01T20:16:47.014Z,20.30
2019-04-01T20:19:15.338Z,25.87
2019-04-01T20:21:43.718Z,17.87
2019-04-01T20:24:12.031Z,24.23
2019-04-01T20:26:40.430Z,20.83
2019-04-01T20:29:08.734Z,18.30
2019-04-01T20:31:37.230Z,41.20
2019-04-01T20:34:19.057Z,96.03
2019-04-01T20:36:36.964Z,26.33
2019-04-01T20:42:14.426Z,37.47
2019-04-01T20:44:42.721Z,26.40
2019-04-01T20:47:11.157Z,28.20
2019-04-01T20:49:39.469Z,27.43
2019-04-01T20:52:07.769Z,24.20
2019-04-01T20:54:36.073Z,17.00
2019-04-01T20:57:05.242Z,17.33
2019-04-01T20:59:34.498Z,19.47
2019-04-01T21:02:03.282Z,20.93
2019-04-01T21:04:32.782Z,18.63
2019-04-01T21:07:01.127Z,23.67
2019-04-01T21:09:29.457Z,25.80
2019-04-01T21:11:57.769Z,21.17
2019-04-01T21:14:26.092Z,18.37
2019-04-01T21:16:55.219Z,55.40
2019-04-01T21:19:24.370Z,18.07
2019-04-01T21:21:52.675Z,13.27
2019-04-01T21:24:20.993Z,19.10
2019-04-01T21:27:08.325Z,14.40
2019-04-01T21:29:36.813Z,21.80
2019-04-01T21:32:05.213Z,25.03
2019-04-01T21:34:33.567Z,18.20
2019-04-01T21:37:03.322Z,10.83
2019-04-01T21:39:31.786Z,15.37
2019-04-01T21:42:00.090Z,29.10
2019-04-01T21:44:28.390Z,16.33
2019-04-01T21:46:56.705Z,12.47
2019-04-01T21:49:24.995Z,20.07
2019-04-01T21:51:53.296Z,18.67
2019-04-01T21:54:21.588Z,15.10
2019-04-01T21:56:49.910Z,17.30
2019-04-01T21:59:18.340Z,14.97
2019-04-01T22:01:46.765Z,12.40
2019-04-01T22:04:15.046Z,27.53
2019-04-01T22:06:43.378Z,14.10
2019-04-01T22:12:00.665Z,15.80
2019-04-01T22:14:28.914Z,75.63
2019-04-01T22:16:57.320Z,174.67
2019-04-01T22:19:25.613Z,26.40
2019-04-01T22:21:53.926Z,16.70
2019-04-01T22:26:56.116Z,12.63
2019-04-01T22:29:25.989Z,20.10
2019-04-01T22:31:54.293Z,12.03
2019-04-01T22:34:22.775Z,25.70
2019-04-01T22:36:51.083Z,10.57
2019-04-01T22:39:26.925Z,11.33
2019-04-01T22:41:49.406Z,12.57
2019-04-01T22:44:17.708Z,8.17
2019-04-01T22:46:47.384Z,8.37
2019-04-01T22:49:15.981Z,14.10
2019-04-01T22:51:44.266Z,16.90
2019-04-01T22:54:12.573Z,12.53
2019-04-01T22:56:40.875Z,10.47
2019-04-01T22:59:09.190Z,13.50
2019-04-01T23:01:37.482Z,9.67
2019-04-01T23:04:05.790Z,10.27
2019-04-01T23:06:34.382Z,15.20
2019-04-01T23:11:45.265Z,11.27
2019-04-01T23:14:13.590Z,12.03
2019-04-01T23:16:41.926Z,12.57
2019-04-01T23:19:10.227Z,13.43
2019-04-01T23:21:38.553Z,10.40
2019-04-01T23:24:06.837Z,12.07
2019-04-01T23:26:35.142Z,9.00
2019-04-01T23:29:04.134Z,11.40
2019-04-01T23:31:32.419Z,15.40
2019-04-01T23:34:00.718Z,12.50
2019-04-01T23:36:29.058Z,12.40
2019-04-01T23:38:57.357Z,7.63
2019-04-01T23:41:25.757Z,10.03
2019-04-01T23:43:54.211Z,9.67
2019-04-01T23:46:24.062Z,11.77
2019-04-01T23:48:52.400Z,11.53
2019-04-01T23:51:20.698Z,9.97
2019-04-01T23:56:22.554Z,10.47
2019-04-01T23:58:51.187Z,10.30
